createdAt,value
2023-03-02T00:00:11.795Z,23.06
2023-03-02T00:04:11.888Z,23.05
2023-03-02T00:08:11.727Z,23.05
2023-03-02T00:12:11.707Z,23.05
2023-03-02T00:16:11.797Z,23.04
2023-03-02T00:20:11.832Z,23.03
2023-03-02T00:24:11.926Z,23.01
2023-03-02T00:28:12.113Z,23.00
2023-03-02T00:32:12.105Z,22.99
2023-03-02T00:36:12.022Z,22.99
2023-03-02T00:40:11.989Z,22.98
2023-03-02T00:44:11.922Z,22.98
2023-03-02T00:48:11.918Z,22.97
2023-03-02T00:52:11.856Z,22.96
2023-03-02T00:56:11.854Z,22.96
2023-03-02T01:00:11.791Z,22.95
2023-03-02T01:04:11.782Z,22.95
2023-03-02T01:08:11.817Z,22.94
2023-03-02T01:12:11.819Z,22.93
2023-03-02T01:16:11.886Z,22.92
2023-03-02T01:20:11.744Z,22.91
2023-03-02T01:24:11.658Z,22.89
2023-03-02T01:28:11.608Z,22.89
2023-03-02T01:32:11.661Z,22.90
2023-03-02T01:36:11.540Z,22.89
2023-03-02T01:40:11.516Z,22.88
2023-03-02T01:44:11.536Z,22.87
2023-03-02T01:48:11.697Z,22.87
2023-03-02T01:52:11.651Z,22.86
2023-03-02T01:56:11.661Z,22.85
2023-03-02T02:00:11.586Z,22.85
2023-03-02T02:04:11.554Z,22.85
2023-03-02T02:08:11.543Z,22.84
2023-03-02T02:12:11.462Z,22.84
2023-03-02T02:16:11.453Z,22.83
2023-03-02T02:20:11.592Z,22.82
2023-03-02T02:24:11.479Z,22.82
2023-03-02T02:28:11.470Z,22.82
2023-03-02T02:32:11.527Z,22.80
2023-03-02T02:36:11.362Z,22.79
2023-03-02T02:40:11.356Z,22.78
2023-03-02T02:44:11.264Z,22.78
2023-03-02T02:48:11.264Z,22.77
2023-03-02T02:52:11.215Z,22.77
2023-03-02T02:56:11.259Z,22.76
2023-03-02T03:00:11.471Z,22.75
2023-03-02T03:04:11.813Z,22.74
2023-03-02T03:08:11.735Z,22.74
2023-03-02T03:12:11.651Z,22.74
2023-03-02T03:16:11.616Z,22.73
2023-03-02T03:20:11.587Z,22.72
2023-03-02T03:24:11.547Z,22.72
2023-03-02T03:28:11.492Z,22.72
2023-03-02T03:32:11.512Z,22.70
2023-03-02T03:36:11.408Z,22.70
2023-03-02T03:40:11.468Z,22.69
2023-03-02T03:44:11.394Z,22.69
2023-03-02T03:48:11.348Z,22.68
2023-03-02T03:52:11.275Z,22.67
2023-03-02T03:56:11.379Z,22.67
2023-03-02T04:00:11.470Z,22.65
2023-03-02T04:04:11.614Z,22.65
2023-03-02T04:08:11.594Z,22.64
2023-03-02T04:12:11.549Z,22.64
2023-03-02T04:16:11.541Z,22.64
2023-03-02T04:20:11.461Z,22.62
2023-03-02T04:24:11.412Z,22.61
2023-03-02T04:28:11.346Z,22.60
2023-03-02T04:32:11.388Z,22.60
2023-03-02T04:36:11.265Z,22.60
2023-03-02T04:40:11.279Z,22.59
2023-03-02T04:44:11.227Z,22.59
2023-03-02T04:48:11.205Z,22.58
2023-03-02T04:52:11.137Z,22.57
2023-03-02T04:56:11.109Z,22.56
2023-03-02T05:00:11.229Z,22.56
2023-03-02T05:04:11.138Z,22.56
2023-03-02T05:08:11.061Z,22.55
2023-03-02T05:12:11.041Z,22.55
2023-03-02T05:16:11.035Z,22.54
2023-03-02T05:20:11.060Z,22.53
2023-03-02T05:24:10.944Z,22.52
2023-03-02T05:28:10.913Z,22.52
2023-03-02T05:32:10.920Z,22.50
2023-03-02T05:36:10.786Z,22.51
2023-03-02T05:40:10.823Z,22.50
2023-03-02T05:44:10.744Z,22.49
2023-03-02T05:48:10.684Z,22.48
2023-03-02T05:52:10.838Z,22.48
2023-03-02T05:56:10.786Z,22.47
2023-03-02T06:00:10.674Z,22.47
2023-03-02T06:04:10.680Z,22.47
2023-03-02T06:08:10.637Z,22.46
2023-03-02T06:12:10.584Z,22.47
2023-03-02T06:16:10.644Z,22.46
2023-03-02T06:20:10.564Z,22.45
2023-03-02T06:24:10.486Z,22.45
2023-03-02T06:28:10.456Z,22.45
2023-03-02T06:32:10.644Z,22.45
2023-03-02T06:36:10.449Z,22.15
2023-03-02T06:40:10.368Z,21.67
2023-03-02T06:44:10.609Z,21.07
2023-03-02T06:48:10.697Z,20.95
2023-03-02T06:52:10.857Z,21.05
2023-03-02T06:56:10.933Z,21.10
2023-03-02T07:00:11.026Z,21.14
2023-03-02T07:04:11.022Z,21.27
2023-03-02T07:08:11.184Z,21.50
2023-03-02T07:12:11.360Z,21.71
2023-03-02T07:16:11.469Z,21.87
2023-03-02T07:20:11.567Z,21.98
2023-03-02T07:24:11.710Z,22.05
2023-03-02T07:28:11.656Z,22.08
2023-03-02T07:32:12.615Z,22.08
2023-03-02T07:36:11.745Z,22.03
2023-03-02T07:40:11.831Z,22.04
2023-03-02T07:44:11.866Z,22.05
2023-03-02T07:48:11.925Z,22.04
2023-03-02T07:52:12.083Z,22.04
2023-03-02T07:56:12.087Z,22.05
2023-03-02T08:00:12.149Z,22.06
2023-03-02T08:04:12.189Z,22.06
2023-03-02T08:08:12.212Z,22.08
2023-03-02T08:12:12.328Z,22.09
2023-03-02T08:16:12.310Z,22.11
2023-03-02T08:20:12.314Z,22.12
2023-03-02T08:24:12.368Z,22.14
2023-03-02T08:28:12.268Z,22.15
2023-03-02T08:32:12.400Z,22.09
2023-03-02T08:36:12.452Z,21.90
2023-03-02T08:40:12.569Z,21.91
2023-03-02T08:44:13.096Z,21.93
2023-03-02T08:48:12.706Z,22.01
2023-03-02T08:52:12.737Z,22.12
2023-03-02T08:56:12.769Z,22.25
2023-03-02T09:00:12.796Z,22.38
2023-03-02T09:04:12.730Z,22.49
2023-03-02T09:08:12.596Z,22.57
2023-03-02T09:12:12.608Z,22.64
2023-03-02T09:16:12.606Z,22.69
2023-03-02T09:20:12.733Z,22.74
2023-03-02T09:24:12.768Z,22.78
2023-03-02T09:28:12.671Z,22.81
2023-03-02T09:32:12.730Z,22.80
2023-03-02T09:36:12.645Z,22.80
2023-03-02T09:40:12.653Z,22.77
2023-03-02T09:44:12.543Z,22.71
2023-03-02T09:48:12.497Z,22.68
2023-03-02T09:52:12.421Z,22.67
2023-03-02T09:56:12.423Z,22.65
2023-03-02T10:00:19.248Z,22.63
2023-03-02T10:04:13.706Z,22.61
2023-03-02T10:08:12.330Z,22.61
2023-03-02T10:12:12.415Z,22.61
2023-03-02T10:16:12.627Z,22.59
2023-03-02T10:20:12.561Z,22.59
2023-03-02T10:24:12.515Z,22.59
2023-03-02T10:28:12.438Z,22.58
2023-03-02T10:32:12.634Z,22.57
2023-03-02T10:36:12.669Z,22.55
2023-03-02T10:40:12.363Z,22.56
2023-03-02T10:44:12.320Z,22.53
2023-03-02T10:48:12.282Z,22.52
2023-03-02T10:52:12.223Z,22.52
2023-03-02T10:56:12.169Z,22.53
2023-03-02T11:00:12.131Z,22.52
2023-03-02T11:04:12.160Z,22.53
2023-03-02T11:08:12.131Z,22.55
2023-03-02T11:12:12.069Z,22.45
2023-03-02T11:16:26.668Z,22.31
2023-03-02T11:20:11.955Z,22.19
2023-03-02T11:24:11.937Z,22.27
2023-03-02T11:28:11.896Z,22.28
2023-03-02T11:32:11.869Z,21.86
2023-03-02T11:36:11.804Z,21.85
2023-03-02T11:40:11.823Z,21.85
2023-03-02T11:44:11.701Z,21.87
2023-03-02T11:48:11.660Z,21.87
2023-03-02T11:52:11.703Z,22.03
2023-03-02T11:56:11.669Z,22.27
2023-03-02T12:00:11.568Z,22.38
2023-03-02T12:04:11.545Z,22.42
2023-03-02T12:08:11.473Z,22.50
2023-03-02T12:12:11.555Z,22.57
2023-03-02T12:16:11.521Z,22.61
2023-03-02T12:20:11.654Z,22.65
2023-03-02T12:24:11.415Z,22.76
2023-03-02T12:28:11.404Z,22.85
2023-03-02T12:32:11.403Z,22.91
2023-03-02T12:36:11.343Z,22.98
2023-03-02T12:40:11.287Z,23.03
2023-03-02T12:44:11.426Z,23.07
2023-03-02T12:48:11.337Z,23.10
2023-03-02T12:52:11.321Z,23.12
2023-03-02T12:56:11.208Z,23.17
2023-03-02T13:00:11.104Z,23.22
2023-03-02T13:04:11.149Z,23.25
2023-03-02T13:08:11.054Z,23.28
2023-03-02T13:12:11.009Z,23.33
2023-03-02T13:16:11.080Z,23.39
2023-03-02T13:20:10.953Z,23.44
2023-03-02T13:24:12.412Z,23.49
2023-03-02T13:28:11.131Z,23.53
2023-03-02T13:32:11.346Z,23.60
2023-03-02T13:36:11.297Z,23.64
2023-03-02T13:40:11.230Z,23.73
2023-03-02T13:44:11.248Z,23.82
2023-03-02T13:48:11.109Z,23.93
2023-03-02T13:52:11.103Z,24.05
2023-03-02T13:56:11.054Z,24.14
2023-03-02T14:00:11.047Z,24.24
2023-03-02T14:04:11.066Z,24.31
2023-03-02T14:08:10.940Z,24.39
2023-03-02T14:12:10.920Z,24.45
2023-03-02T14:16:10.933Z,24.51
2023-03-02T14:20:10.828Z,24.58
2023-03-02T14:24:10.805Z,24.65
2023-03-02T14:28:10.734Z,24.73
2023-03-02T14:32:10.749Z,24.80
2023-03-02T14:36:10.772Z,24.89
2023-03-02T14:40:11.005Z,24.98
2023-03-02T14:44:10.981Z,25.05
2023-03-02T14:48:10.949Z,25.13
2023-03-02T14:52:10.887Z,25.21
2023-03-02T14:56:10.825Z,25.29
2023-03-02T15:00:10.841Z,25.36
2023-03-02T15:04:10.785Z,25.39
2023-03-02T15:08:10.730Z,25.40
2023-03-02T15:12:10.720Z,25.42
2023-03-02T15:16:10.757Z,25.42
2023-03-02T15:20:10.703Z,25.41
2023-03-02T15:24:10.631Z,25.47
2023-03-02T15:28:10.561Z,25.58
2023-03-02T15:32:10.598Z,25.65
2023-03-02T15:36:10.708Z,25.70
2023-03-02T15:40:10.771Z,25.64
2023-03-02T15:44:10.866Z,25.64
2023-03-02T15:48:13.307Z,25.61
2023-03-02T15:52:10.927Z,25.47
2023-03-02T15:56:10.920Z,25.39
2023-03-02T16:00:10.912Z,25.34
2023-03-02T16:04:10.837Z,25.30
2023-03-02T16:08:10.790Z,25.26
2023-03-02T16:12:10.761Z,25.24
2023-03-02T16:16:10.832Z,25.20
2023-03-02T16:20:10.685Z,25.15
2023-03-02T16:24:10.740Z,25.12
2023-03-02T16:28:10.635Z,25.11
2023-03-02T16:32:10.922Z,25.08
2023-03-02T16:36:10.774Z,25.07
2023-03-02T16:40:10.784Z,25.04
2023-03-02T16:44:10.738Z,25.03
2023-03-02T16:48:10.699Z,25.01
2023-03-02T16:52:10.624Z,24.97
2023-03-02T16:56:10.610Z,24.94
2023-03-02T17:00:10.583Z,24.93
2023-03-02T17:04:10.674Z,24.92
2023-03-02T17:08:10.499Z,24.91
2023-03-02T17:12:10.474Z,24.89
2023-03-02T17:16:10.689Z,24.87
2023-03-02T17:20:10.781Z,24.85
2023-03-02T17:24:10.836Z,24.84
2023-03-02T17:28:10.892Z,24.83
2023-03-02T17:32:10.944Z,24.82
2023-03-02T17:36:10.862Z,24.80
2023-03-02T17:40:10.854Z,24.80
2023-03-02T17:44:10.841Z,24.77
2023-03-02T17:48:10.795Z,24.77
2023-03-02T17:52:10.824Z,24.75
2023-03-02T17:56:10.833Z,24.71
2023-03-02T18:00:10.944Z,24.67
2023-03-02T18:04:10.983Z,24.64
2023-03-02T18:08:10.971Z,24.64
2023-03-02T18:12:10.990Z,24.64
2023-03-02T18:16:11.085Z,24.64
2023-03-02T18:20:11.061Z,24.63
2023-03-02T18:24:11.130Z,24.62
2023-03-02T18:28:11.172Z,24.62
2023-03-02T18:32:11.265Z,24.60
2023-03-02T18:36:11.321Z,24.59
2023-03-02T18:40:11.387Z,24.58
2023-03-02T18:44:11.468Z,24.56
2023-03-02T18:48:11.574Z,24.55
2023-03-02T18:52:11.638Z,24.54
2023-03-02T18:56:11.756Z,24.53
2023-03-02T19:00:11.862Z,24.52
2023-03-02T19:04:11.993Z,24.52
2023-03-02T19:08:12.105Z,24.50
2023-03-02T19:12:12.212Z,24.47
2023-03-02T19:16:12.429Z,24.45
2023-03-02T19:20:12.617Z,24.43
2023-03-02T19:24:12.636Z,24.43
2023-03-02T19:28:12.829Z,24.41
2023-03-02T19:32:12.962Z,24.41
2023-03-02T19:36:13.105Z,24.39
2023-03-02T19:40:13.232Z,24.37
2023-03-02T19:44:13.416Z,24.36
2023-03-02T19:48:13.549Z,24.35
2023-03-02T19:52:13.723Z,24.34
2023-03-02T19:56:13.926Z,24.33
2023-03-02T20:00:14.137Z,24.31
2023-03-02T20:04:14.272Z,24.30
2023-03-02T20:08:14.473Z,24.29
2023-03-02T20:12:14.649Z,24.28
2023-03-02T20:16:14.838Z,24.25
2023-03-02T20:20:15.028Z,24.24
2023-03-02T20:24:15.200Z,24.23
2023-03-02T20:28:15.450Z,24.22
2023-03-02T20:32:15.687Z,24.21
2023-03-02T20:36:15.611Z,24.20
2023-03-02T20:40:15.543Z,24.18
2023-03-02T20:44:15.569Z,24.17
2023-03-02T20:48:15.504Z,24.16
2023-03-02T20:52:15.462Z,24.15
2023-03-02T20:56:15.405Z,24.13
2023-03-02T21:00:15.385Z,24.12
2023-03-02T21:04:15.356Z,24.12
2023-03-02T21:08:15.296Z,24.10
2023-03-02T21:12:15.317Z,24.09
2023-03-02T21:16:15.341Z,24.07
2023-03-02T21:20:17.159Z,24.07
2023-03-02T21:24:15.221Z,24.06
2023-03-02T21:28:15.165Z,24.04
2023-03-02T21:32:15.134Z,24.04
2023-03-02T21:36:15.098Z,24.03
2023-03-02T21:40:15.043Z,24.03
2023-03-02T21:44:15.000Z,24.01
2023-03-02T21:48:14.963Z,23.99
2023-03-02T21:52:14.973Z,23.98
2023-03-02T21:56:14.861Z,23.97
2023-03-02T22:00:14.852Z,23.95
2023-03-02T22:04:14.812Z,23.93
2023-03-02T22:08:14.873Z,23.92
2023-03-02T22:12:14.956Z,23.92
2023-03-02T22:16:15.067Z,23.92
2023-03-02T22:20:15.042Z,23.90
2023-03-02T22:24:15.047Z,23.90
2023-03-02T22:28:15.069Z,23.88
2023-03-02T22:32:15.125Z,23.86
2023-03-02T22:36:15.055Z,23.87
2023-03-02T22:40:15.064Z,23.85
2023-03-02T22:44:15.087Z,23.85
2023-03-02T22:48:15.090Z,23.83
2023-03-02T22:52:15.035Z,23.82
2023-03-02T22:56:15.064Z,23.82
2023-03-02T23:00:15.085Z,23.82
2023-03-02T23:04:14.994Z,23.83
2023-03-02T23:08:14.953Z,23.83
2023-03-02T23:12:14.994Z,23.82
2023-03-02T23:16:14.973Z,23.81
2023-03-02T23:20:14.963Z,23.81
2023-03-02T23:24:14.948Z,23.81
2023-03-02T23:28:14.952Z,23.80
2023-03-02T23:32:16.279Z,23.79
2023-03-02T23:36:14.868Z,23.79
2023-03-02T23:40:14.809Z,23.77
2023-03-02T23:44:14.837Z,23.76
2023-03-02T23:48:14.719Z,23.75
2023-03-02T23:52:14.693Z,23.74
2023-03-02T23:56:14.645Z,23.73
